СИЛА РОССИИ. Форум сайта «Отвага» (www.otvaga2004.ru)

Информация о пользователе

Привет, Гость! Войдите или зарегистрируйтесь.


Вы здесь » СИЛА РОССИИ. Форум сайта «Отвага» (www.otvaga2004.ru) » Вооружение сухопутных войск


Вооружение сухопутных войск

Тем 61 страница 90 из 217

Тема Ответов Просмотров Последнее сообщение
61 FIELD MANUAL  mr_tank
5 1609 2022-04-07 17:23:45  mr_tank
62 ВСУ -2020  Рагнар Лодброк  [ 1 2 3  41 ]
1216 91463 2022-03-03 11:55:34  Серьга
63 Средства ПВО-10  Виталий Иванович (PQ)  [ 1 2 3  39 ]
1169 139491 2022-02-23 12:56:20  Tactical Kit
64 Минометы  Гайковерт  [ 1 2 3  33 ]
967 142266 2022-02-17 19:19:55  vasya83
65 ВС Белоруссии  Сергей-1982
4 2206 2022-02-07 19:52:44  Серьга
938 101049 2022-02-06 23:39:17  Франсуа Бертран
1013 223101 2022-02-06 13:33:18  powermax
68 Пистолеты-2  Zaklepkin  [ 1 2 3  33 ]
972 144984 2022-01-11 09:00:15  powermax
1006 67343 2021-12-11 18:20:09  Франсуа Бертран
19 7525 2021-11-17 21:30:04  Механический кот
64 19186 2021-09-01 16:44:36  Хорт мохнатый
72 Минометы  MARINIR  [ 1 2 3  11 ]
318 28989 2021-08-11 11:16:55  Штепсель
137 31768 2021-06-15 08:31:39  powermax
1002 45702 2021-06-03 23:07:21  Comrade
763 45155 2021-02-15 09:30:40  powermax
0 1018 2021-02-06 09:41:38  mr_tank
4 1420 2021-02-05 11:23:19  mr_tank
245 37477 2021-01-05 14:54:46  Oleg7700
79 Закрыта Противотанковые средства 6  finnbogi  [ 1 2 3  40 ]
1177 85051 2020-11-02 23:25:40  Retiv
80 Закрыта Пулеметы-8  KORVIN  [ 1 2 3  34 ]
993 127659 2020-10-30 21:22:50  Мак Сим
81 Закрыта Вооруженные силы: общие вопросы 4  Realist  [ 1 2 3  35 ]
1047 78694 2020-10-24 14:35:33  Механический кот
82 Закрыта Средства ПВО-9  ДимитриUS  [ 1 2 3  37 ]
1090 127564 2020-10-22 21:29:22  Blitz.
1396 148559 2020-10-19 17:10:14  Wind
84 Закрыта Средства ПВО - 8  kinetic  [ 1 2 3  30 ]
882 113480 2020-09-25 21:59:29  Oleg7700
85 вопрос про КПВТ  Нихтферштейн
4 1773 2020-06-13 21:26:23  Blitz.
20 4202 2020-05-17 10:47:45  Astax
939 93404 2019-10-23 17:29:42  __Memento_mori__
88 Околовоенные новости  Zaklepkin  [ 1 2 3  10 ]
283 31978 2019-09-26 10:46:32  humanitarius
648 11235 2019-09-18 21:47:26  sasa
90 Пистолеты-3  KORVIN  [ 1 2 3  33 ]
978 62881 2019-09-13 01:22:27  KORVIN

Вы здесь » СИЛА РОССИИ. Форум сайта «Отвага» (www.otvaga2004.ru) » Вооружение сухопутных войск